createdAt,value
2022-12-22T00:02:36.489Z,90.50
2022-12-22T00:05:31.624Z,90.60
2022-12-22T00:08:19.070Z,90.40
2022-12-22T00:11:04.967Z,90.40
2022-12-22T00:13:51.084Z,92.40
2022-12-22T00:16:37.284Z,91.40
2022-12-22T00:19:28.982Z,91.50
2022-12-22T00:22:16.585Z,91.50
2022-12-22T00:25:03.397Z,91.30
2022-12-22T00:27:50.691Z,91.10
2022-12-22T00:30:36.700Z,90.80
2022-12-22T00:33:24.084Z,90.60
2022-12-22T00:36:10.431Z,90.50
2022-12-22T00:38:55.725Z,90.70
2022-12-22T00:41:43.012Z,90.60
2022-12-22T00:44:28.615Z,90.50
2022-12-22T00:47:14.462Z,90.30
2022-12-22T00:50:04.316Z,90.40
2022-12-22T00:52:51.416Z,90.30
2022-12-22T00:55:41.092Z,90.30
2022-12-22T00:58:33.972Z,90.40
2022-12-22T01:01:19.615Z,90.30
2022-12-22T01:04:05.732Z,90.20
2022-12-22T01:06:54.361Z,90.10
2022-12-22T01:09:41.298Z,90.20
2022-12-22T01:12:31.460Z,90.20
2022-12-22T01:15:18.573Z,90.10
2022-12-22T01:18:04.040Z,90.30
2022-12-22T01:20:50.749Z,90.10
2022-12-22T01:23:36.169Z,90.00
2022-12-22T01:26:21.876Z,90.10
2022-12-22T01:29:07.018Z,90.10
2022-12-22T01:31:54.328Z,90.00
2022-12-22T01:34:39.936Z,90.10
2022-12-22T01:37:25.594Z,90.50
2022-12-22T01:40:11.071Z,90.10
2022-12-22T01:42:56.625Z,90.30
2022-12-22T01:45:44.477Z,90.10
2022-12-22T01:48:33.958Z,90.00
2022-12-22T01:51:24.210Z,90.00
2022-12-22T01:54:11.674Z,90.20
2022-12-22T01:56:57.995Z,90.10
2022-12-22T01:59:43.558Z,90.20
2022-12-22T02:02:29.760Z,90.00
2022-12-22T02:05:20.270Z,90.10
2022-12-22T02:08:19.940Z,89.70
2022-12-22T02:11:29.416Z,89.80
2022-12-22T02:14:30.402Z,89.70
2022-12-22T02:17:26.684Z,89.70
2022-12-22T02:20:36.183Z,89.80
2022-12-22T02:23:33.856Z,89.70
2022-12-22T02:26:33.877Z,90.20
2022-12-22T02:29:21.670Z,89.70
2022-12-22T02:32:07.001Z,89.80
2022-12-22T02:34:52.704Z,89.40
2022-12-22T02:37:46.291Z,90.00
2022-12-22T02:40:41.720Z,89.90
2022-12-22T02:43:38.345Z,89.30
2022-12-22T02:46:33.869Z,89.70
2022-12-22T02:49:24.573Z,90.00
2022-12-22T02:52:16.843Z,89.50
2022-12-22T02:55:03.562Z,89.70
2022-12-22T02:57:49.737Z,90.00
2022-12-22T03:00:36.796Z,90.00
2022-12-22T03:03:22.690Z,90.10
2022-12-22T03:06:08.756Z,89.60
2022-12-22T03:08:54.458Z,90.00
2022-12-22T03:11:39.738Z,90.00
2022-12-22T03:14:25.051Z,89.80
2022-12-22T03:17:11.807Z,90.00
2022-12-22T03:19:57.183Z,90.10
2022-12-22T03:22:42.517Z,89.80
2022-12-22T03:25:28.538Z,89.80
2022-12-22T03:28:02.182Z,90.00
2022-12-22T03:30:30.496Z,89.80
2022-12-22T03:33:00.060Z,90.10
2022-12-22T03:35:28.678Z,90.20
2022-12-22T03:37:56.690Z,90.10
2022-12-22T03:40:24.868Z,90.00
2022-12-22T03:43:10.442Z,90.10
2022-12-22T03:45:56.072Z,90.00
2022-12-22T03:48:25.471Z,90.00
2022-12-22T03:50:53.883Z,90.00
2022-12-22T03:53:22.047Z,90.00
2022-12-22T03:55:50.078Z,89.70
2022-12-22T03:58:18.406Z,89.50
2022-12-22T04:00:46.476Z,89.90
2022-12-22T04:03:15.448Z,89.60
2022-12-22T04:05:46.285Z,89.30
2022-12-22T04:08:14.584Z,89.40
2022-12-22T04:11:00.009Z,89.50
2022-12-22T04:13:28.353Z,89.60
2022-12-22T04:15:56.596Z,89.60
2022-12-22T04:18:24.736Z,89.20
2022-12-22T04:20:54.258Z,89.10
2022-12-22T04:23:22.294Z,89.50
2022-12-22T04:25:50.455Z,89.40
2022-12-22T04:28:18.546Z,89.40
2022-12-22T04:30:46.852Z,89.40
2022-12-22T04:33:15.065Z,89.50
2022-12-22T04:35:43.111Z,89.20
2022-12-22T04:38:12.772Z,89.30
2022-12-22T04:40:41.424Z,89.20
2022-12-22T04:43:09.771Z,89.50
2022-12-22T04:45:37.852Z,89.60
2022-12-22T04:48:06.808Z,90.40
2022-12-22T04:50:35.056Z,90.50
2022-12-22T04:53:03.277Z,90.70
2022-12-22T04:55:32.751Z,90.60
2022-12-22T04:58:00.928Z,90.50
2022-12-22T05:00:28.994Z,89.70
2022-12-22T05:02:58.559Z,90.00
2022-12-22T05:05:26.686Z,90.00
2022-12-22T05:07:54.914Z,89.80
2022-12-22T05:10:22.971Z,89.90
2022-12-22T05:12:58.512Z,89.50
2022-12-22T05:15:28.977Z,89.80
2022-12-22T05:17:58.721Z,89.50
2022-12-22T05:20:27.608Z,89.00
2022-12-22T05:22:56.081Z,89.30
2022-12-22T05:25:24.091Z,89.00
2022-12-22T05:27:53.857Z,89.20
2022-12-22T05:30:22.104Z,89.90
2022-12-22T05:32:50.368Z,88.90
2022-12-22T05:35:18.643Z,88.80
2022-12-22T05:37:46.851Z,88.80
2022-12-22T05:40:15.310Z,88.70
2022-12-22T05:42:43.371Z,88.80
2022-12-22T05:45:16.384Z,88.40
2022-12-22T05:47:45.580Z,88.60
2022-12-22T05:50:15.720Z,88.80
2022-12-22T05:52:45.006Z,89.00
2022-12-22T05:55:13.957Z,89.00
2022-12-22T05:57:43.498Z,88.90
2022-12-22T06:00:16.480Z,89.00
2022-12-22T06:02:45.182Z,89.00
2022-12-22T06:05:15.254Z,88.70
2022-12-22T06:07:43.630Z,88.80
2022-12-22T06:10:13.478Z,89.10
2022-12-22T06:12:42.057Z,88.50
2022-12-22T06:15:13.426Z,88.40
2022-12-22T06:17:45.138Z,88.40
2022-12-22T06:20:14.799Z,88.70
2022-12-22T06:22:42.982Z,88.90
2022-12-22T06:25:17.687Z,88.50
2022-12-22T06:27:46.957Z,88.10
2022-12-22T06:30:16.161Z,88.40
2022-12-22T06:32:45.572Z,88.30
2022-12-22T06:35:14.223Z,88.00
2022-12-22T06:37:42.642Z,88.20
2022-12-22T06:40:12.029Z,88.30
2022-12-22T06:43:02.145Z,88.10
2022-12-22T06:45:34.186Z,87.90
2022-12-22T06:48:03.808Z,87.70
2022-12-22T06:50:32.157Z,88.00
2022-12-22T06:53:00.369Z,87.90
2022-12-22T06:55:28.751Z,88.20
2022-12-22T06:57:56.848Z,88.50
2022-12-22T07:00:25.329Z,88.40
2022-12-22T07:02:53.893Z,88.00
2022-12-22T07:05:24.639Z,87.90
2022-12-22T07:07:52.890Z,87.80
2022-12-22T07:10:41.701Z,87.80
2022-12-22T07:13:20.420Z,88.70
2022-12-22T07:15:55.471Z,89.70
2022-12-22T07:18:28.681Z,90.50
2022-12-22T07:20:58.245Z,90.00
2022-12-22T07:23:26.643Z,87.40
2022-12-22T07:25:55.021Z,87.60
2022-12-22T07:28:23.316Z,90.00
2022-12-22T07:30:52.850Z,90.40
2022-12-22T07:33:21.329Z,91.20
2022-12-22T07:35:49.689Z,91.70
2022-12-22T07:38:19.092Z,92.20
2022-12-22T07:40:51.916Z,92.40
2022-12-22T07:43:19.644Z,92.50
2022-12-22T07:45:48.230Z,92.30
2022-12-22T07:48:33.735Z,92.50
2022-12-22T07:51:05.152Z,92.50
2022-12-22T07:53:35.212Z,92.90
2022-12-22T07:56:05.132Z,93.40
2022-12-22T07:58:33.368Z,93.40
2022-12-22T08:01:02.064Z,93.60
2022-12-22T08:03:30.515Z,93.70
2022-12-22T08:05:58.628Z,93.80
2022-12-22T08:08:26.895Z,95.50
2022-12-22T08:10:56.297Z,95.90
2022-12-22T08:13:24.697Z,95.80
2022-12-22T08:15:52.877Z,95.50
2022-12-22T08:18:21.245Z,95.30
2022-12-22T08:20:52.901Z,95.00
2022-12-22T08:23:21.410Z,94.70
2022-12-22T08:25:54.531Z,94.40
2022-12-22T08:28:24.812Z,94.10
2022-12-22T08:30:53.013Z,93.90
2022-12-22T08:33:21.332Z,93.70
2022-12-22T08:35:49.483Z,93.50
2022-12-22T08:38:17.997Z,93.30
2022-12-22T08:40:46.588Z,93.30
2022-12-22T08:43:15.549Z,92.90
2022-12-22T08:45:44.980Z,92.70
2022-12-22T08:48:13.178Z,92.60
2022-12-22T08:50:41.273Z,92.70
2022-12-22T08:53:29.680Z,92.30
2022-12-22T08:55:58.673Z,92.20
2022-12-22T08:58:27.040Z,92.10
2022-12-22T09:00:56.452Z,92.00
2022-12-22T09:03:25.002Z,92.00
2022-12-22T09:05:53.063Z,91.90
2022-12-22T09:08:21.225Z,91.80
2022-12-22T09:10:49.256Z,91.80
2022-12-22T09:13:17.769Z,91.70
2022-12-22T09:15:45.839Z,96.00
2022-12-22T09:18:15.462Z,97.20
2022-12-22T09:20:43.475Z,98.10
2022-12-22T09:23:12.007Z,98.60
2022-12-22T09:25:40.103Z,98.20
2022-12-22T09:28:08.840Z,97.90
2022-12-22T09:30:37.085Z,97.70
2022-12-22T09:33:05.261Z,97.70
2022-12-22T09:35:41.675Z,97.70
2022-12-22T09:38:09.792Z,97.60
2022-12-22T09:40:38.312Z,97.60
2022-12-22T09:43:06.430Z,97.50
2022-12-22T09:45:34.866Z,86.00
2022-12-22T09:48:03.507Z,86.50
2022-12-22T09:50:33.673Z,90.20
2022-12-22T09:53:05.890Z,94.20
2022-12-22T09:55:40.964Z,98.70
2022-12-22T09:58:25.690Z,99.90
2022-12-22T10:01:00.764Z,99.90
2022-12-22T10:03:41.369Z,99.90
2022-12-22T10:06:14.521Z,99.90
2022-12-22T10:08:44.396Z,99.90
2022-12-22T10:11:16.185Z,99.90
2022-12-22T10:13:45.236Z,99.90
2022-12-22T10:16:23.026Z,99.90
2022-12-22T10:19:00.425Z,99.90
2022-12-22T10:21:30.426Z,99.90
2022-12-22T10:24:00.010Z,99.90
2022-12-22T10:26:33.710Z,99.90
2022-12-22T10:29:06.898Z,99.90
2022-12-22T10:31:37.036Z,99.90
2022-12-22T10:34:16.902Z,99.90
2022-12-22T10:36:49.704Z,99.90
2022-12-22T10:39:23.911Z,99.90
2022-12-22T10:41:55.168Z,99.90
2022-12-22T10:44:26.425Z,99.90
2022-12-22T10:46:56.434Z,99.90
2022-12-22T10:49:26.459Z,99.90
2022-12-22T10:51:57.094Z,99.90
2022-12-22T10:54:32.959Z,99.70
2022-12-22T10:57:07.076Z,99.30
2022-12-22T10:59:48.048Z,99.20
2022-12-22T11:02:29.222Z,99.00
2022-12-22T11:05:03.140Z,99.90
2022-12-22T11:07:34.102Z,99.70
2022-12-22T11:10:03.845Z,99.30
2022-12-22T11:12:44.018Z,99.10
2022-12-22T11:15:24.935Z,98.90
2022-12-22T11:18:02.728Z,98.80
2022-12-22T11:20:48.312Z,98.60
2022-12-22T11:23:21.802Z,98.50
2022-12-22T11:26:01.895Z,98.70
2022-12-22T11:28:51.095Z,98.40
2022-12-22T11:31:32.204Z,98.50
2022-12-22T11:34:12.428Z,98.40
2022-12-22T11:36:59.493Z,98.40
2022-12-22T11:39:38.992Z,98.40
2022-12-22T11:42:22.834Z,98.40
2022-12-22T11:45:02.405Z,98.30
2022-12-22T11:47:40.403Z,98.10
2022-12-22T11:50:58.731Z,98.30
2022-12-22T11:53:43.064Z,99.90
2022-12-22T11:56:21.092Z,99.90
2022-12-22T11:59:02.644Z,99.90
2022-12-22T12:01:58.941Z,99.90
2022-12-22T12:04:43.343Z,99.90
2022-12-22T12:07:26.005Z,99.90
2022-12-22T12:10:05.104Z,99.90
2022-12-22T12:12:43.973Z,99.90
2022-12-22T12:15:27.064Z,99.90
2022-12-22T12:18:27.908Z,99.90
2022-12-22T12:21:14.516Z,99.90
2022-12-22T12:24:11.235Z,99.90
2022-12-22T12:26:48.850Z,99.90
2022-12-22T12:29:20.340Z,99.90
2022-12-22T12:31:55.341Z,99.90
2022-12-22T12:34:25.431Z,99.90
2022-12-22T12:37:00.001Z,99.90
2022-12-22T12:39:36.208Z,99.90
2022-12-22T12:42:19.717Z,99.90
2022-12-22T12:44:48.566Z,99.90
2022-12-22T12:47:36.786Z,99.90
2022-12-22T12:50:32.882Z,99.90
2022-12-22T12:53:10.919Z,99.90
2022-12-22T12:56:01.887Z,99.90
2022-12-22T12:58:53.326Z,99.90
2022-12-22T13:01:59.314Z,99.90
2022-12-22T13:05:13.064Z,99.90
2022-12-22T13:08:21.079Z,99.90
2022-12-22T13:11:52.203Z,99.90
2022-12-22T13:14:09.466Z,99.90
2022-12-22T13:16:39.510Z,99.90
2022-12-22T13:19:24.597Z,99.90
2022-12-22T13:21:57.819Z,99.90
2022-12-22T13:24:30.913Z,99.90
2022-12-22T13:27:07.559Z,99.90
2022-12-22T13:29:44.903Z,99.90
2022-12-22T13:32:21.594Z,99.90
2022-12-22T13:35:29.758Z,99.90
2022-12-22T13:37:46.993Z,99.90
2022-12-22T13:40:19.116Z,99.90
2022-12-22T13:42:51.667Z,99.90
2022-12-22T13:45:30.824Z,99.90
2022-12-22T13:48:01.672Z,99.90
2022-12-22T13:50:34.861Z,94.40
2022-12-22T13:53:04.909Z,94.90
2022-12-22T13:55:34.038Z,98.30
2022-12-22T13:58:09.243Z,98.90
2022-12-22T14:00:37.402Z,99.10
2022-12-22T14:03:33.997Z,99.10
2022-12-22T14:06:03.114Z,99.10
2022-12-22T14:08:31.342Z,99.10
2022-12-22T14:10:59.497Z,99.20
2022-12-22T14:13:33.256Z,99.20
2022-12-22T14:16:02.616Z,99.20
2022-12-22T14:18:32.465Z,99.20
2022-12-22T14:21:01.014Z,99.20
2022-12-22T14:23:32.683Z,99.30
2022-12-22T14:26:01.787Z,99.30
2022-12-22T14:28:36.540Z,99.30
2022-12-22T14:31:06.401Z,98.70
2022-12-22T14:39:39.558Z,99.40
2022-12-22T14:42:14.653Z,99.60
2022-12-22T14:44:47.190Z,99.60
2022-12-22T14:47:18.890Z,99.60
2022-12-22T14:49:50.530Z,99.90
2022-12-22T14:55:32.072Z,99.90
2022-12-22T14:58:04.048Z,99.90
2022-12-22T15:00:36.407Z,99.90
2022-12-22T15:03:06.820Z,99.90
2022-12-22T15:05:38.289Z,99.90
2022-12-22T15:08:09.356Z,99.90
2022-12-22T15:10:43.865Z,99.90
2022-12-22T15:13:19.357Z,99.90
2022-12-22T15:15:50.473Z,99.90
2022-12-22T15:18:19.840Z,99.90
2022-12-22T15:20:47.911Z,99.90
2022-12-22T15:23:17.388Z,99.90
2022-12-22T15:25:45.672Z,99.90
2022-12-22T15:28:14.216Z,99.90
2022-12-22T15:30:42.945Z,99.90
2022-12-22T15:33:15.028Z,99.90
2022-12-22T15:35:44.059Z,99.90
2022-12-22T15:38:15.582Z,99.90
2022-12-22T15:40:43.805Z,99.90
2022-12-22T15:43:36.655Z,99.90
2022-12-22T15:46:00.945Z,99.90
2022-12-22T15:48:33.118Z,99.90
2022-12-22T15:51:02.774Z,99.90
2022-12-22T15:53:32.889Z,99.90
2022-12-22T15:56:01.370Z,99.90
2022-12-22T15:58:34.066Z,99.90
2022-12-22T16:01:02.250Z,99.90
2022-12-22T16:03:32.030Z,99.90
2022-12-22T16:06:00.660Z,99.90
2022-12-22T16:08:32.607Z,99.90
2022-12-22T16:11:00.987Z,99.90
2022-12-22T16:13:29.679Z,99.90
2022-12-22T16:15:58.345Z,99.90
2022-12-22T16:18:26.927Z,99.90
2022-12-22T16:20:58.905Z,99.90
2022-12-22T16:23:28.222Z,99.90
2022-12-22T16:26:02.136Z,99.90
2022-12-22T16:28:31.908Z,99.90
2022-12-22T16:31:01.533Z,99.90
2022-12-22T16:33:29.982Z,99.90
2022-12-22T16:35:59.330Z,99.90
2022-12-22T16:38:27.524Z,99.90
2022-12-22T16:40:55.619Z,99.90
2022-12-22T16:46:16.755Z,99.90
2022-12-22T16:48:47.735Z,99.90
2022-12-22T16:51:20.013Z,99.90
2022-12-22T16:53:48.272Z,99.90
2022-12-22T16:56:20.292Z,99.90
2022-12-22T16:58:49.268Z,99.90
2022-12-22T17:01:30.554Z,99.90
2022-12-22T17:04:02.068Z,99.90
2022-12-22T17:06:31.914Z,99.90
2022-12-22T17:09:00.034Z,99.90
2022-12-22T17:11:30.198Z,99.90
2022-12-22T17:14:05.757Z,99.90
2022-12-22T17:16:34.192Z,99.90
2022-12-22T17:19:02.285Z,99.90
2022-12-22T17:21:31.763Z,99.90
2022-12-22T17:24:04.026Z,99.90
2022-12-22T17:26:34.676Z,99.90
2022-12-22T17:29:03.045Z,99.90
2022-12-22T17:31:31.781Z,99.90
2022-12-22T17:34:00.178Z,99.90
2022-12-22T17:36:36.866Z,99.90
2022-12-22T17:39:05.746Z,99.90
2022-12-22T17:41:34.270Z,99.90
2022-12-22T17:44:02.313Z,99.90
2022-12-22T17:46:30.738Z,99.90
2022-12-22T17:48:58.890Z,99.90
2022-12-22T17:51:29.313Z,99.90
2022-12-22T17:54:00.225Z,99.90
2022-12-22T17:56:29.910Z,99.90
2022-12-22T17:58:58.118Z,99.90
2022-12-22T18:01:28.296Z,99.90
2022-12-22T18:03:57.764Z,99.90
2022-12-22T18:06:29.367Z,99.90
2022-12-22T18:08:59.191Z,99.90
2022-12-22T18:11:28.149Z,99.90
2022-12-22T18:13:57.527Z,99.90
2022-12-22T18:16:25.720Z,99.90
2022-12-22T18:18:54.009Z,99.90
2022-12-22T18:21:24.763Z,99.90
2022-12-22T18:23:53.608Z,99.90
2022-12-22T18:26:25.703Z,99.90
2022-12-22T18:28:54.934Z,99.90
2022-12-22T18:31:24.474Z,99.90
2022-12-22T18:33:53.073Z,99.90
2022-12-22T18:36:25.988Z,99.90
2022-12-22T18:38:55.035Z,99.90
2022-12-22T18:41:26.232Z,99.90
2022-12-22T18:43:54.484Z,99.90
2022-12-22T18:46:22.627Z,99.90
2022-12-22T18:48:51.138Z,99.90
2022-12-22T18:51:21.895Z,99.90
2022-12-22T18:53:51.414Z,99.90
2022-12-22T18:56:20.311Z,99.90
2022-12-22T18:58:50.168Z,99.90
2022-12-22T19:01:24.625Z,99.90
2022-12-22T19:03:55.404Z,99.90
2022-12-22T19:06:24.418Z,99.90
2022-12-22T19:08:53.027Z,99.90
2022-12-22T19:11:28.386Z,99.90
2022-12-22T19:13:57.962Z,99.90
2022-12-22T19:16:27.821Z,99.90
2022-12-22T19:18:57.133Z,99.90
2022-12-22T19:21:25.251Z,99.90
2022-12-22T19:23:53.440Z,99.90
2022-12-22T19:26:24.293Z,99.90
2022-12-22T19:28:54.769Z,99.90
2022-12-22T19:31:27.689Z,99.90
2022-12-22T19:33:56.997Z,99.90
2022-12-22T19:36:28.102Z,99.90
2022-12-22T19:39:05.848Z,99.90
2022-12-22T19:41:42.095Z,99.90
2022-12-22T19:44:18.952Z,99.90
2022-12-22T19:46:49.205Z,99.90
2022-12-22T19:49:18.520Z,99.90
2022-12-22T19:51:47.203Z,99.90
2022-12-22T19:54:15.745Z,99.90
2022-12-22T19:56:46.124Z,99.90
2022-12-22T19:59:27.299Z,99.90
2022-12-22T20:02:00.023Z,99.90
2022-12-22T20:04:28.453Z,99.90
2022-12-22T20:06:56.633Z,99.80
2022-12-22T20:09:25.050Z,99.80
2022-12-22T20:11:53.496Z,99.80
2022-12-22T20:14:21.742Z,99.90
2022-12-22T20:16:49.889Z,90.50
2022-12-22T20:19:19.539Z,73.60
2022-12-22T20:21:47.675Z,89.60
2022-12-22T20:24:22.472Z,94.00
2022-12-22T20:26:54.512Z,95.80
2022-12-22T20:29:24.897Z,96.70
2022-12-22T20:31:53.187Z,97.10
2022-12-22T20:34:22.722Z,97.10
2022-12-22T20:36:50.797Z,97.10
2022-12-22T20:39:20.488Z,97.10
2022-12-22T20:41:52.861Z,96.90
2022-12-22T20:44:22.971Z,96.90
2022-12-22T20:46:51.295Z,96.70
2022-12-22T20:49:19.730Z,96.60
2022-12-22T20:51:49.504Z,96.50
2022-12-22T20:54:18.161Z,96.40
2022-12-22T20:56:46.414Z,96.30
2022-12-22T20:59:17.699Z,96.20
2022-12-22T21:01:46.806Z,96.20
2022-12-22T21:04:15.781Z,96.50
2022-12-22T21:06:47.977Z,96.70
2022-12-22T21:09:17.472Z,96.60
2022-12-22T21:11:45.862Z,96.70
2022-12-22T21:14:14.975Z,96.80
2022-12-22T21:16:43.863Z,96.90
2022-12-22T21:19:20.798Z,97.10
2022-12-22T21:21:49.183Z,97.10
2022-12-22T21:24:18.768Z,97.50
2022-12-22T21:26:49.878Z,97.30
2022-12-22T21:29:21.771Z,97.50
2022-12-22T21:31:50.055Z,97.60
2022-12-22T21:34:18.362Z,97.80
2022-12-22T21:36:49.907Z,97.80
2022-12-22T21:39:26.916Z,97.90
2022-12-22T21:42:01.102Z,97.90
2022-12-22T21:44:30.059Z,98.00
2022-12-22T21:46:58.831Z,98.00
2022-12-22T21:49:28.526Z,98.10
2022-12-22T21:51:57.001Z,98.10
2022-12-22T21:54:27.384Z,98.20
2022-12-22T21:56:56.682Z,98.10
2022-12-22T21:59:24.812Z,98.00
2022-12-22T22:01:53.707Z,98.00
2022-12-22T22:04:22.274Z,98.00
2022-12-22T22:06:50.812Z,98.10
2022-12-22T22:09:18.865Z,87.10
2022-12-22T22:12:06.037Z,78.30
2022-12-22T22:14:34.254Z,91.40
2022-12-22T22:17:02.436Z,98.00
2022-12-22T22:19:30.592Z,98.10
2022-12-22T22:21:59.054Z,97.70
2022-12-22T22:24:27.137Z,97.50
2022-12-22T22:26:56.847Z,97.30
2022-12-22T22:29:25.040Z,97.10
2022-12-22T22:31:53.078Z,96.90
2022-12-22T22:34:21.338Z,96.80
2022-12-22T22:36:49.646Z,96.70
2022-12-22T22:39:17.969Z,96.60
2022-12-22T22:41:45.950Z,96.50
2022-12-22T22:44:15.560Z,96.50
2022-12-22T22:46:43.717Z,96.50
2022-12-22T22:49:12.086Z,96.40
2022-12-22T22:51:40.225Z,96.40
2022-12-22T22:54:08.611Z,96.50
2022-12-22T22:56:38.715Z,96.50
2022-12-22T22:59:07.217Z,96.60
2022-12-22T23:01:36.757Z,96.80
2022-12-22T23:04:05.508Z,97.20
2022-12-22T23:06:34.113Z,97.10
2022-12-22T23:09:02.478Z,97.20
2022-12-22T23:11:30.696Z,97.50
2022-12-22T23:13:59.320Z,97.20
2022-12-22T23:16:32.210Z,97.20
2022-12-22T23:19:05.520Z,97.40
2022-12-22T23:21:33.799Z,97.40
2022-12-22T23:24:02.341Z,97.40
2022-12-22T23:26:30.383Z,97.40
2022-12-22T23:29:03.314Z,97.50
2022-12-22T23:31:32.751Z,97.50
2022-12-22T23:34:01.251Z,97.50
2022-12-22T23:36:31.020Z,97.50
2022-12-22T23:38:59.791Z,97.60
2022-12-22T23:41:27.984Z,97.60
2022-12-22T23:43:56.795Z,97.60
2022-12-22T23:46:25.021Z,97.70
2022-12-22T23:48:54.388Z,97.80
2022-12-22T23:51:24.397Z,97.80
2022-12-22T23:53:54.010Z,97.80
2022-12-22T23:56:22.375Z,97.90
2022-12-22T23:58:54.593Z,98.00
